San Francisco, CA (94154)

10:33 AM PDT on September 22, 2014 (GMT -0700)
SOMA - Near Van Ness | Change Station
CLOSE
Current Station
Personal Weather Station
Location: San Francisco, CA
Elevation: 49 ft
Nearby Weather Stations

Elev 49 ft 37.77 °N, 122.42 °W | Updated 3 seconds ago

Partly Cloudy
Partly Cloudy
71.7 °F
Feels Like 75 °F
N
0.0
Wind Variable Wind from SSE
Gusts 0.0 mph

Today
High -- | Low -- °F
--% Chance of Precip.
Yesterday
High -- | Low -- °F
Precip. -- in
6:57 AM 7:06 PM
Waning Crescent, 2% visible
Pressure 30.04 in
Visibility 10.0 miles
Clouds Few 1900 ft
Heat Index 75 °F
Dew Point 61 °F
Humidity 69%
Rainfall 0.00 in
Snow Depth 0 in , 1 in , 0 in
UV 4 out of 12
Pollen 3.70 out of 12
Ozone Good
PM2.5 Good
Flu Activity Not available.
SPECI KSFO 221726Z 25004KT 10SM FEW019 21/15 A3004 RMK AO2 $

More Conditions Fewer Conditions

Pressure 30.04 in
Visibility 10.0 miles
Clouds Few 1900 ft
Heat Index 75 °F
Dew Point 61 °F
Humidity 69%
Rainfall 0.00 in
Snow Depth 0 in , 1 in , 0 in
UV 4 out of 12
Pollen 3.70 out of 12
Ozone Good
PM2.5 Good
Flu Activity Not available.
SPECI KSFO 221726Z 25004KT 10SM FEW019 21/15 A3004 RMK AO2 $

More Conditions Fewer Conditions

10-Day Weather Forecast

Almanac

Astronomy

Sep. 22, 2014 Rise Set
Actual Time 6:57 AM PDT 7:06 PM PDT
Civil Twilight 6:31 AM PDT 7:32 PM PDT
Nautical Twilight 6:00 AM PDT 8:03 PM PDT
Astronomical Twilight 5:29 AM PDT 8:34 PM PDT
Moon 5:32 AM PDT 6:16 PM PDT
Length of Visible Light 13h 01m
Length of Day
12h 08m
Tomorrow will be 2m 26s shorter.
Waning Crescent, 2% of the Moon is Illuminated
Today
Waning Crescent
Sep 24
New
Oct 1
First Quarter
Oct 8
Full
Oct 15
Last Quarter

Today's Extremes

State Highs State Lows

Community

WunderPhotos

Upload Photos

1,755,493 photos uploaded!

WunderBlogs® & News

Nearby

Air Quality

  Air Quality AQ Index Pollutant
Yesterday Good
OZONE
Yesterday Good
PM2.5
Current Good
PM2.5
Current Good
OZONE
Monday Good
PM2.5
Tuesday Good
PM2.5
Wednesday Good
OZONE
Thursday Good
OZONE
Friday Good
PM2.5

Snow Depth

Station Depth Elevation
Rubicon #2 0 in 7500 ft
Spratt Creek 1 in 6200 ft
Fallen Leaf 0 in 6300 ft
CSS Lab 0 in 6900 ft
Adin Mountain 0 in 6200 ft

Earthquake Activity

City Distance Mag. Time & Date
Sonoma, California 38 miles 2.7 1:17 PM PDT
2014-09-21
Cloverdale, California 77 miles 2.5 9:15 PM PDT
2014-09-20
Livermore, California 38 miles 2.6 3:37 AM PDT
2014-09-19
Minimum magnitude displayed is 2.5.

Coastal Water Temperatures

Place Temperature
No Stations Reporting

Nearby Weather Stations